createdAt,value
2022-10-12T00:02:24.468Z,10.80
2022-10-12T00:04:51.452Z,10.70
2022-10-12T00:07:18.428Z,10.80
2022-10-12T00:09:45.387Z,10.70
2022-10-12T00:12:12.315Z,10.70
2022-10-12T00:14:39.383Z,10.60
2022-10-12T00:17:06.400Z,10.50
2022-10-12T00:19:33.356Z,10.40
2022-10-12T00:22:00.304Z,10.30
2022-10-12T00:24:27.315Z,10.20
2022-10-12T00:26:54.275Z,10.20
2022-10-12T00:29:21.261Z,10.10
2022-10-12T00:31:48.210Z,10.20
2022-10-12T00:34:15.133Z,10.30
2022-10-12T00:36:42.175Z,10.30
2022-10-12T00:39:10.556Z,10.40
2022-10-12T00:41:44.067Z,10.30
2022-10-12T00:44:35.924Z,10.40
2022-10-12T00:47:28.726Z,10.30
2022-10-12T00:50:02.641Z,10.20
2022-10-12T00:52:55.440Z,10.20
2022-10-12T00:55:24.346Z,10.40
2022-10-12T00:57:53.209Z,10.30
2022-10-12T01:00:20.328Z,10.20
2022-10-12T01:02:50.339Z,10.20
2022-10-12T01:05:18.520Z,10.20
2022-10-12T01:07:45.422Z,10.20
2022-10-12T01:10:13.307Z,10.20
2022-10-12T01:12:43.000Z,10.20
2022-10-12T01:15:11.109Z,10.10
2022-10-12T01:17:46.144Z,10.20
2022-10-12T01:20:28.110Z,10.10
2022-10-12T01:22:57.987Z,10.10
2022-10-12T01:26:02.543Z,10.10
2022-10-12T01:28:46.056Z,10.00
2022-10-12T01:31:19.926Z,10.00
2022-10-12T01:33:56.615Z,10.00
2022-10-12T01:36:26.684Z,10.00
2022-10-12T01:39:23.458Z,10.10
2022-10-12T01:41:55.558Z,10.00
2022-10-12T01:44:24.466Z,10.00
2022-10-12T01:46:54.328Z,10.00
2022-10-12T01:49:26.868Z,10.00
2022-10-12T01:52:02.863Z,10.00
2022-10-12T01:55:14.609Z,10.00
2022-10-12T01:57:47.996Z,10.00
2022-10-12T02:00:17.613Z,9.90
2022-10-12T02:03:09.028Z,10.00
2022-10-12T02:05:55.941Z,10.00
2022-10-12T02:08:31.031Z,10.00
2022-10-12T02:11:10.689Z,10.00
2022-10-12T02:13:48.418Z,10.00
2022-10-12T02:16:20.026Z,10.00
2022-10-12T02:18:52.114Z,10.00
2022-10-12T02:21:29.422Z,9.90
2022-10-12T02:23:59.752Z,9.90
2022-10-12T02:26:28.005Z,10.00
2022-10-12T02:28:55.674Z,9.90
2022-10-12T02:31:47.396Z,10.00
2022-10-12T02:34:22.458Z,10.00
2022-10-12T02:37:27.381Z,10.00
2022-10-12T02:39:56.366Z,9.90
2022-10-12T02:42:41.809Z,10.00
2022-10-12T02:45:15.515Z,9.90
2022-10-12T02:47:43.942Z,9.90
2022-10-12T02:50:11.730Z,9.90
2022-10-12T02:52:39.446Z,10.00
2022-10-12T02:55:06.858Z,10.00
2022-10-12T02:57:33.856Z,10.00
2022-10-12T03:00:00.812Z,10.10
2022-10-12T03:02:27.908Z,10.10
2022-10-12T03:04:55.047Z,10.10
2022-10-12T03:09:58.965Z,10.20
2022-10-12T03:12:25.802Z,10.10
2022-10-12T03:14:52.657Z,10.20
2022-10-12T03:17:19.535Z,10.30
2022-10-12T03:19:46.402Z,10.30
2022-10-12T03:22:13.240Z,10.40
2022-10-12T03:24:40.152Z,10.40
2022-10-12T03:27:06.981Z,10.50
2022-10-12T03:29:33.868Z,10.60
2022-10-12T03:32:00.750Z,10.50
2022-10-12T03:34:27.597Z,10.50
2022-10-12T03:36:54.457Z,10.60
2022-10-12T03:39:21.294Z,10.60
2022-10-12T03:41:48.172Z,10.60
2022-10-12T03:44:15.013Z,10.60
2022-10-12T03:46:41.866Z,10.60
2022-10-12T03:49:08.901Z,10.60
2022-10-12T03:51:35.772Z,10.60
2022-10-12T03:54:02.659Z,10.70
2022-10-12T03:56:29.505Z,10.70
2022-10-12T03:58:56.372Z,10.70
2022-10-12T04:01:23.322Z,10.70
2022-10-12T04:03:50.237Z,10.70
2022-10-12T04:06:17.089Z,10.70
2022-10-12T04:08:47.165Z,10.70
2022-10-12T04:11:17.612Z,10.70
2022-10-12T04:13:44.541Z,10.70
2022-10-12T04:16:11.481Z,10.80
2022-10-12T04:18:38.593Z,10.80
2022-10-12T04:21:15.233Z,10.80
2022-10-12T04:23:43.225Z,10.80
2022-10-12T04:26:10.222Z,10.90
2022-10-12T04:28:37.174Z,10.90
2022-10-12T04:31:04.116Z,10.90
2022-10-12T04:33:31.001Z,10.90
2022-10-12T04:35:57.884Z,11.00
2022-10-12T04:38:25.102Z,10.90
2022-10-12T04:40:52.351Z,11.00
2022-10-12T04:43:19.310Z,11.00
2022-10-12T04:45:54.774Z,11.00
2022-10-12T04:48:22.518Z,11.10
2022-10-12T04:50:49.474Z,11.10
2022-10-12T04:53:16.376Z,11.10
2022-10-12T04:55:43.314Z,11.10
2022-10-12T04:58:10.247Z,11.20
2022-10-12T05:00:37.186Z,11.20
2022-10-12T05:03:05.322Z,11.20
2022-10-12T05:05:32.385Z,11.20
2022-10-12T05:07:59.269Z,11.20
2022-10-12T05:10:26.481Z,11.10
2022-10-12T05:12:53.478Z,11.20
2022-10-12T05:15:20.385Z,11.20
2022-10-12T05:17:47.394Z,11.20
2022-10-12T05:20:14.313Z,11.20
2022-10-12T05:22:41.225Z,11.20
2022-10-12T05:25:08.932Z,11.20
2022-10-12T05:27:36.007Z,11.20
2022-10-12T05:30:04.415Z,11.20
2022-10-12T05:32:31.448Z,11.20
2022-10-12T05:34:58.762Z,11.20
2022-10-12T05:37:25.621Z,11.10
2022-10-12T05:39:52.605Z,11.10
2022-10-12T05:42:19.614Z,11.00
2022-10-12T05:44:46.496Z,11.00
2022-10-12T05:47:13.426Z,11.00
2022-10-12T05:49:40.289Z,11.00
2022-10-12T05:52:07.172Z,11.00
2022-10-12T05:54:34.103Z,11.00
2022-10-12T05:57:01.039Z,10.90
2022-10-12T05:59:28.060Z,10.90
2022-10-12T06:01:55.088Z,10.90
2022-10-12T06:04:22.025Z,10.90
2022-10-12T06:06:48.934Z,11.10
2022-10-12T06:09:16.235Z,11.10
2022-10-12T06:11:43.098Z,11.20
2022-10-12T06:14:09.969Z,10.90
2022-10-12T06:16:36.887Z,11.10
2022-10-12T06:19:04.024Z,11.10
2022-10-12T06:21:34.780Z,11.10
2022-10-12T06:24:02.310Z,12.20
2022-10-12T06:26:29.287Z,12.30
2022-10-12T06:28:56.440Z,12.30
2022-10-12T06:31:23.724Z,12.20
2022-10-12T06:33:51.140Z,12.30
2022-10-12T06:36:18.214Z,12.20
2022-10-12T06:38:45.155Z,12.20
2022-10-12T06:41:12.292Z,12.10
2022-10-12T06:43:39.170Z,12.30
2022-10-12T06:46:06.335Z,12.20
2022-10-12T06:48:33.388Z,12.20
2022-10-12T06:51:00.296Z,12.10
2022-10-12T06:53:32.980Z,12.30
2022-10-12T06:56:00.125Z,12.40
2022-10-12T06:58:27.041Z,12.20
2022-10-12T07:00:53.983Z,12.40
2022-10-12T07:03:21.374Z,12.20
2022-10-12T07:05:48.257Z,12.20
2022-10-12T07:08:15.110Z,12.20
2022-10-12T07:10:42.133Z,12.40
2022-10-12T07:13:09.168Z,12.10
2022-10-12T07:15:36.122Z,12.40
2022-10-12T07:18:03.183Z,12.30
2022-10-12T07:20:30.029Z,12.20
2022-10-12T07:22:56.976Z,12.10
2022-10-12T07:25:23.875Z,12.40
2022-10-12T07:27:50.789Z,12.20
2022-10-12T07:30:17.880Z,12.40
2022-10-12T07:32:46.512Z,12.10
2022-10-12T07:35:13.494Z,12.40
2022-10-12T07:37:40.867Z,12.40
2022-10-12T07:40:08.817Z,12.50
2022-10-12T07:42:35.771Z,12.30
2022-10-12T07:45:02.707Z,12.50
2022-10-12T07:47:29.641Z,12.50
2022-10-12T07:49:56.514Z,12.60
2022-10-12T07:52:23.528Z,12.30
2022-10-12T07:54:50.428Z,12.40
2022-10-12T07:57:17.296Z,12.60
2022-10-12T07:59:44.233Z,12.30
2022-10-12T08:02:14.187Z,12.40
2022-10-12T08:04:41.146Z,12.60
2022-10-12T08:07:08.390Z,12.40
2022-10-12T08:09:36.358Z,12.50
2022-10-12T08:12:04.264Z,12.40
2022-10-12T08:14:31.176Z,12.60
2022-10-12T08:16:58.073Z,12.30
2022-10-12T08:19:25.100Z,12.30
2022-10-12T08:21:52.789Z,12.40
2022-10-12T08:24:19.945Z,12.30
2022-10-12T08:26:48.270Z,12.10
2022-10-12T08:29:15.255Z,12.50
2022-10-12T08:31:42.224Z,12.10
2022-10-12T08:34:09.761Z,12.10
2022-10-12T08:36:37.219Z,12.10
2022-10-12T08:39:06.936Z,12.40
2022-10-12T08:41:51.952Z,12.40
2022-10-12T08:44:52.314Z,12.00
2022-10-12T08:47:42.238Z,12.00
2022-10-12T08:50:18.240Z,12.30
2022-10-12T08:52:54.564Z,12.30
2022-10-12T08:55:45.261Z,12.50
2022-10-12T08:58:20.804Z,12.50
2022-10-12T09:00:52.746Z,12.60
2022-10-12T09:03:33.397Z,12.40
2022-10-12T09:06:18.738Z,12.60
2022-10-12T09:08:45.600Z,12.30
2022-10-12T09:11:46.215Z,12.50
2022-10-12T09:14:21.284Z,12.60
2022-10-12T09:16:49.876Z,12.70
2022-10-12T09:19:24.502Z,12.50
2022-10-12T09:21:51.489Z,12.80
2022-10-12T09:24:27.014Z,12.70
2022-10-12T09:27:03.213Z,12.80
2022-10-12T09:29:31.766Z,12.80
2022-10-12T09:32:16.891Z,12.80
2022-10-12T09:34:45.170Z,12.60
2022-10-12T09:37:19.446Z,13.10
2022-10-12T09:39:46.665Z,13.20
2022-10-12T09:42:13.548Z,12.90
2022-10-12T09:44:52.659Z,13.10
2022-10-12T09:47:24.973Z,13.30
2022-10-12T09:49:53.578Z,13.20
2022-10-12T09:52:24.078Z,13.00
2022-10-12T09:54:54.729Z,13.40
2022-10-12T09:57:30.590Z,13.20
2022-10-12T09:59:58.223Z,13.00
2022-10-12T10:02:26.831Z,13.20
2022-10-12T10:04:54.813Z,13.40
2022-10-12T10:07:24.747Z,13.30
2022-10-12T10:10:12.459Z,13.30
2022-10-12T10:12:53.782Z,12.80
2022-10-12T10:15:41.042Z,12.90
2022-10-12T10:18:33.782Z,13.20
2022-10-12T10:21:02.987Z,13.40
2022-10-12T10:23:40.481Z,12.90
2022-10-12T10:26:14.252Z,12.80
2022-10-12T10:28:46.995Z,13.30
2022-10-12T10:31:13.878Z,13.20
2022-10-12T10:33:41.179Z,12.90
2022-10-12T10:36:23.308Z,12.90
2022-10-12T10:39:16.241Z,12.80
2022-10-12T10:41:43.550Z,13.30
2022-10-12T10:44:25.263Z,13.30
2022-10-12T10:46:53.396Z,13.30
2022-10-12T10:49:49.712Z,13.20
2022-10-12T10:52:37.060Z,12.80
2022-10-12T10:55:25.866Z,13.20
2022-10-12T10:58:05.388Z,13.10
2022-10-12T11:00:39.587Z,12.70
2022-10-12T11:03:47.102Z,12.70
2022-10-12T11:06:42.284Z,12.70
2022-10-12T11:09:30.579Z,12.70
2022-10-12T11:12:08.116Z,12.60
2022-10-12T11:14:48.509Z,13.00
2022-10-12T11:17:41.277Z,12.60
2022-10-12T11:20:45.454Z,12.60
2022-10-12T11:23:33.638Z,12.90
2022-10-12T11:26:12.733Z,12.70
2022-10-12T11:28:40.900Z,12.90
2022-10-12T11:31:24.862Z,13.20
2022-10-12T11:33:54.472Z,13.20
2022-10-12T11:36:26.058Z,12.90
2022-10-12T11:39:07.118Z,13.30
2022-10-12T11:42:09.798Z,13.00
2022-10-12T11:44:47.897Z,13.10
2022-10-12T11:47:39.401Z,13.30
2022-10-12T11:50:41.184Z,13.10
2022-10-12T11:53:15.938Z,13.40
2022-10-12T11:55:54.635Z,13.50
2022-10-12T11:58:48.861Z,13.30
2022-10-12T12:02:10.260Z,13.60
2022-10-12T12:04:43.358Z,13.40
2022-10-12T12:07:46.475Z,13.40
2022-10-12T12:10:30.610Z,13.40
2022-10-12T12:13:18.277Z,13.50
2022-10-12T12:15:47.930Z,13.70
2022-10-12T12:18:19.658Z,13.60
2022-10-12T12:20:49.504Z,13.80
2022-10-12T12:23:31.750Z,13.80
2022-10-12T12:26:16.262Z,13.90
2022-10-12T12:28:47.802Z,13.90
2022-10-12T12:31:24.285Z,14.00
2022-10-12T12:34:03.970Z,13.80
2022-10-12T12:36:34.994Z,13.90
2022-10-12T12:39:04.237Z,14.10
2022-10-12T12:42:02.834Z,13.90
2022-10-12T12:44:40.855Z,13.90
2022-10-12T12:47:33.002Z,14.20
2022-10-12T12:50:00.367Z,14.10
2022-10-12T12:52:34.370Z,14.00
2022-10-12T12:55:16.571Z,14.20
2022-10-12T12:58:05.936Z,14.20
2022-10-12T13:01:10.632Z,14.30
2022-10-12T13:04:05.046Z,14.40
2022-10-12T13:06:43.921Z,14.40
2022-10-12T13:09:26.206Z,14.60
2022-10-12T13:12:07.520Z,14.50
2022-10-12T13:14:34.360Z,14.60
2022-10-12T13:20:16.248Z,14.60
2022-10-12T13:22:46.747Z,14.70
2022-10-12T13:25:24.196Z,14.60
2022-10-12T13:27:53.491Z,14.90
2022-10-12T13:30:58.532Z,15.20
2022-10-12T13:33:40.886Z,15.80
2022-10-12T13:36:24.529Z,16.10
2022-10-12T13:39:08.115Z,16.40
2022-10-12T13:41:35.787Z,16.50
2022-10-12T13:44:06.990Z,16.00
2022-10-12T13:46:42.746Z,15.70
2022-10-12T13:49:12.908Z,15.40
2022-10-12T13:51:39.852Z,14.90
2022-10-12T13:54:43.858Z,14.60
2022-10-12T13:57:28.162Z,14.30
2022-10-12T14:00:01.325Z,14.20
2022-10-12T14:02:31.505Z,14.00
2022-10-12T14:05:01.872Z,13.90
2022-10-12T14:07:36.194Z,14.00
2022-10-12T14:10:17.046Z,13.90
2022-10-12T14:12:47.002Z,13.80
2022-10-12T14:15:15.321Z,13.80
2022-10-12T14:17:46.987Z,13.80
2022-10-12T14:20:33.214Z,14.10
2022-10-12T14:23:02.177Z,13.90
2022-10-12T14:25:31.732Z,13.80
2022-10-12T14:28:07.240Z,13.80
2022-10-12T14:30:39.053Z,13.80
2022-10-12T14:33:23.345Z,13.90
2022-10-12T14:35:52.229Z,13.90
2022-10-12T14:38:44.820Z,13.90
2022-10-12T14:41:32.589Z,14.10
2022-10-12T14:44:20.116Z,14.00
2022-10-12T14:47:07.749Z,14.00
2022-10-12T14:49:42.207Z,13.90
2022-10-12T14:52:22.350Z,13.90
2022-10-12T14:54:58.180Z,13.90
2022-10-12T14:57:28.830Z,13.90
2022-10-12T14:59:56.146Z,13.90
2022-10-12T15:02:25.008Z,14.00
2022-10-12T15:04:52.797Z,13.90
2022-10-12T15:07:26.452Z,13.90
2022-10-12T15:09:54.242Z,13.80
2022-10-12T15:12:23.066Z,13.80
2022-10-12T15:14:51.734Z,13.70
2022-10-12T15:17:20.159Z,13.70
2022-10-12T15:19:49.875Z,13.60
2022-10-12T15:22:26.254Z,13.60
2022-10-12T15:24:53.933Z,13.50
2022-10-12T15:27:21.230Z,13.60
2022-10-12T15:29:48.492Z,13.60
2022-10-12T15:32:17.795Z,13.60
2022-10-12T15:34:45.470Z,13.50
2022-10-12T15:37:12.687Z,13.60
2022-10-12T15:39:39.810Z,13.60
2022-10-12T15:42:06.688Z,13.60
2022-10-12T15:44:40.890Z,13.60
2022-10-12T15:47:10.254Z,13.50
2022-10-12T15:49:37.843Z,13.50
2022-10-12T15:52:06.410Z,13.40
2022-10-12T15:54:33.395Z,13.40
2022-10-12T15:57:00.320Z,13.30
2022-10-12T15:59:27.345Z,13.20
2022-10-12T16:01:54.221Z,13.20
2022-10-12T16:04:21.699Z,13.10
2022-10-12T16:06:48.710Z,13.20
2022-10-12T16:09:15.603Z,13.10
2022-10-12T16:11:42.484Z,13.20
2022-10-12T16:14:14.225Z,13.20
2022-10-12T16:16:41.328Z,13.30
2022-10-12T16:19:08.659Z,13.30
2022-10-12T16:21:35.525Z,13.20
2022-10-12T16:24:02.673Z,13.10
2022-10-12T16:26:29.549Z,13.00
2022-10-12T16:28:56.727Z,12.80
2022-10-12T16:31:23.989Z,12.80
2022-10-12T16:33:50.847Z,12.70
2022-10-12T16:36:18.080Z,12.70
2022-10-12T16:38:45.542Z,12.50
2022-10-12T16:41:15.126Z,12.40
2022-10-12T16:43:42.646Z,12.30
2022-10-12T16:46:09.755Z,12.40
2022-10-12T16:48:36.972Z,12.30
2022-10-12T16:51:08.889Z,12.20
2022-10-12T16:53:36.206Z,12.30
2022-10-12T16:56:04.300Z,12.20
2022-10-12T16:58:31.313Z,12.20
2022-10-12T17:00:58.406Z,12.10
2022-10-12T17:03:25.471Z,12.10
2022-10-12T17:06:00.275Z,12.20
2022-10-12T17:08:27.633Z,12.10
2022-10-12T17:10:55.535Z,12.10
2022-10-12T17:13:22.498Z,12.20
2022-10-12T17:15:49.430Z,12.10
2022-10-12T17:18:16.334Z,12.10
2022-10-12T17:20:43.281Z,12.10
2022-10-12T17:23:10.225Z,12.20
2022-10-12T17:25:37.189Z,12.20
2022-10-12T17:28:04.108Z,12.20
2022-10-12T17:30:31.035Z,12.00
2022-10-12T17:32:57.922Z,12.00
2022-10-12T17:35:24.864Z,12.00
2022-10-12T17:37:51.758Z,11.90
2022-10-12T17:40:18.681Z,11.90
2022-10-12T17:42:45.646Z,11.90
2022-10-12T17:45:12.582Z,11.80
2022-10-12T17:47:39.573Z,11.70
2022-10-12T17:50:06.840Z,11.90
2022-10-12T17:52:37.970Z,11.80
2022-10-12T17:55:05.276Z,11.80
2022-10-12T17:57:34.515Z,11.70
2022-10-12T18:00:03.565Z,11.60
2022-10-12T18:02:30.471Z,11.70
2022-10-12T18:04:57.704Z,11.60
2022-10-12T18:07:24.617Z,11.60
2022-10-12T18:09:51.668Z,11.70
2022-10-12T18:12:18.960Z,11.70
2022-10-12T18:14:46.089Z,11.60
2022-10-12T18:17:12.972Z,11.60
2022-10-12T18:19:39.906Z,11.50
2022-10-12T18:22:06.805Z,11.50
2022-10-12T18:24:33.790Z,11.50
2022-10-12T18:27:00.758Z,11.50
2022-10-12T18:29:27.694Z,11.50
2022-10-12T18:31:54.713Z,11.40
2022-10-12T18:34:21.593Z,11.40
2022-10-12T18:36:48.708Z,11.40
2022-10-12T18:39:16.022Z,11.40
2022-10-12T18:41:43.109Z,11.40
2022-10-12T18:44:10.934Z,11.40
2022-10-12T18:46:37.886Z,11.40
2022-10-12T18:49:08.202Z,11.40
2022-10-12T18:51:38.295Z,11.30
2022-10-12T18:54:06.187Z,11.30
2022-10-12T18:56:36.686Z,11.30
2022-10-12T18:59:03.960Z,11.20
2022-10-12T19:01:31.442Z,11.20
2022-10-12T19:03:59.616Z,11.30
2022-10-12T19:06:32.894Z,11.20
2022-10-12T19:09:01.409Z,11.20
2022-10-12T19:11:29.839Z,11.10
2022-10-12T19:14:03.011Z,11.10
2022-10-12T19:16:30.760Z,11.00
2022-10-12T19:19:03.127Z,11.00
2022-10-12T19:21:30.836Z,10.90
2022-10-12T19:23:57.946Z,10.80
2022-10-12T19:26:27.292Z,10.70
2022-10-12T19:28:59.414Z,10.80
2022-10-12T19:31:34.950Z,10.70
2022-10-12T19:34:04.582Z,10.70
2022-10-12T19:36:33.834Z,10.60
2022-10-12T19:39:04.974Z,10.60
2022-10-12T19:41:32.499Z,10.50
2022-10-12T19:44:01.169Z,10.40
2022-10-12T19:46:28.733Z,10.40
2022-10-12T19:48:57.755Z,10.30
2022-10-12T19:51:26.537Z,10.30
2022-10-12T19:53:58.244Z,10.30
2022-10-12T19:56:26.173Z,10.20
2022-10-12T19:58:55.666Z,10.10
2022-10-12T20:01:29.166Z,10.10
2022-10-12T20:03:56.116Z,10.00
2022-10-12T20:06:25.715Z,10.00
2022-10-12T20:08:55.137Z,10.00
2022-10-12T20:11:24.690Z,9.90
2022-10-12T20:13:52.474Z,9.90
2022-10-12T20:16:20.499Z,9.90
2022-10-12T20:18:47.698Z,9.80
2022-10-12T20:21:17.528Z,9.80
2022-10-12T20:23:44.710Z,9.80
2022-10-12T20:26:15.429Z,9.80
2022-10-12T20:28:42.563Z,9.70
2022-10-12T20:31:10.203Z,9.70
2022-10-12T20:33:39.258Z,9.70
2022-10-12T20:36:19.401Z,9.70
2022-10-12T20:38:46.661Z,9.70
2022-10-12T20:41:17.594Z,9.70
2022-10-12T20:43:44.725Z,9.70
2022-10-12T20:46:14.393Z,9.70
2022-10-12T20:48:42.755Z,9.70
2022-10-12T20:51:15.195Z,9.70
2022-10-12T20:53:42.430Z,9.60
2022-10-12T20:56:11.313Z,9.70
2022-10-12T20:58:38.563Z,9.60
2022-10-12T21:01:11.397Z,9.60
2022-10-12T21:03:39.275Z,9.60
2022-10-12T21:06:09.018Z,9.60
2022-10-12T21:08:36.254Z,9.60
2022-10-12T21:11:04.433Z,9.50
2022-10-12T21:13:35.613Z,9.50
2022-10-12T21:16:02.579Z,9.50
2022-10-12T21:18:32.758Z,9.40
2022-10-12T21:21:17.915Z,9.40
2022-10-12T21:23:54.087Z,9.30
2022-10-12T21:26:22.724Z,9.20
2022-10-12T21:28:49.929Z,9.20
2022-10-12T21:31:17.888Z,9.20
2022-10-12T21:33:45.146Z,9.10
2022-10-12T21:36:18.700Z,9.10
2022-10-12T21:38:45.750Z,9.00
2022-10-12T21:41:14.790Z,9.00
2022-10-12T21:43:42.569Z,9.10
2022-10-12T21:46:15.285Z,9.10
2022-10-12T21:48:42.535Z,9.10
2022-10-12T21:51:10.214Z,9.10
2022-10-12T21:53:38.437Z,9.10
2022-10-12T21:56:21.488Z,9.00
2022-10-12T21:58:49.917Z,9.00
2022-10-12T22:01:24.836Z,9.00
2022-10-12T22:03:56.859Z,9.00
2022-10-12T22:06:25.670Z,8.90
2022-10-12T22:08:57.466Z,8.90
2022-10-12T22:11:25.133Z,8.90
2022-10-12T22:13:52.446Z,8.80
2022-10-12T22:16:19.389Z,8.80
2022-10-12T22:18:46.663Z,8.70
2022-10-12T22:21:17.045Z,8.70
2022-10-12T22:23:45.423Z,8.70
2022-10-12T22:26:15.624Z,8.70
2022-10-12T22:28:43.110Z,8.60
2022-10-12T22:31:12.149Z,8.60
2022-10-12T22:33:39.098Z,8.50
2022-10-12T22:36:08.330Z,8.40
2022-10-12T22:38:36.030Z,8.20
2022-10-12T22:41:05.046Z,8.10
2022-10-12T22:43:32.900Z,8.00
2022-10-12T22:46:00.277Z,7.90
2022-10-12T22:48:30.737Z,7.80
2022-10-12T22:50:58.064Z,7.80
2022-10-12T22:53:25.635Z,7.70
2022-10-12T22:56:08.035Z,7.60
2022-10-12T22:58:36.006Z,7.70
2022-10-12T23:01:10.229Z,7.70
2022-10-12T23:03:38.186Z,7.70
2022-10-12T23:06:06.550Z,7.60
2022-10-12T23:11:14.892Z,7.70
2022-10-12T23:13:42.538Z,7.70
2022-10-12T23:16:17.795Z,7.70
2022-10-12T23:18:45.037Z,7.70
2022-10-12T23:21:17.273Z,7.70
2022-10-12T23:23:45.864Z,7.70
2022-10-12T23:26:23.961Z,7.70
2022-10-12T23:28:51.789Z,7.60
2022-10-12T23:31:21.840Z,7.60
2022-10-12T23:33:49.254Z,7.60
2022-10-12T23:36:17.506Z,7.60
2022-10-12T23:38:45.342Z,7.50
2022-10-12T23:41:13.557Z,7.50
2022-10-12T23:43:40.963Z,7.40
2022-10-12T23:46:08.026Z,7.40
2022-10-12T23:48:35.163Z,7.40
2022-10-12T23:51:02.113Z,7.30
2022-10-12T23:53:29.421Z,7.20
2022-10-12T23:55:56.623Z,7.10
2022-10-12T23:58:24.561Z,7.10
